Welcome to the New NWS' Forecast!
Most changes are behind the scenes, but click here for differences you might notice.

Terminal Aerodrome Forecast (TAF)

Issued by National Weather Service (NWS)

                            
861 
FTUS42 KMFL 172337
TAFMIA
TAF
KMIA 172337Z 1800/1906 09009KT P6SM VCSH SCT030 SCT050
     FM181300 09012KT P6SM VCSH SCT025 SCT040
     FM181800 11013KT P6SM FEW030
     FM182300 10010KT P6SM VCSH SCT025=